createdAt,value
2018-11-14T00:01:22.818Z,76.28
2018-11-14T00:03:56.531Z,76.00
2018-11-14T00:06:29.747Z,76.98
2018-11-14T00:09:01.479Z,75.88
2018-11-14T00:11:31.743Z,76.72
2018-11-14T00:14:02.126Z,76.82
2018-11-14T00:16:32.750Z,75.96
2018-11-14T00:19:02.790Z,75.87
2018-11-14T00:21:33.854Z,77.08
2018-11-14T00:24:06.049Z,76.66
2018-11-14T00:26:36.965Z,76.47
2018-11-14T00:29:09.821Z,76.07
2018-11-14T00:31:39.874Z,75.92
2018-11-14T00:34:12.770Z,76.14
2018-11-14T00:39:44.834Z,76.52
2018-11-14T00:42:18.447Z,76.39
2018-11-14T00:44:49.042Z,77.13
2018-11-14T00:47:19.568Z,76.85
2018-11-14T00:49:49.905Z,76.48
2018-11-14T00:52:20.759Z,77.19
2018-11-14T00:54:51.450Z,76.71
2018-11-14T00:57:22.023Z,77.05
2018-11-14T00:59:52.343Z,76.75
2018-11-14T01:02:22.926Z,76.51
2018-11-14T01:04:56.992Z,76.22
2018-11-14T01:07:27.378Z,76.34
2018-11-14T01:09:57.996Z,76.60
2018-11-14T01:12:28.175Z,76.13
2018-11-14T01:14:59.111Z,76.43
2018-11-14T01:17:30.247Z,76.40
2018-11-14T01:20:00.058Z,76.99
2018-11-14T01:22:32.947Z,76.70
2018-11-14T01:25:02.762Z,76.79
2018-11-14T01:27:38.046Z,76.82
2018-11-14T01:30:13.845Z,77.66
2018-11-14T01:32:49.623Z,77.94
2018-11-14T01:35:20.491Z,78.32
2018-11-14T01:37:50.018Z,78.54
2018-11-14T01:40:27.125Z,78.31
2018-11-14T01:42:58.390Z,79.06
2018-11-14T01:45:29.229Z,78.92
2018-11-14T01:48:01.240Z,78.62
2018-11-14T01:50:33.431Z,79.16
2018-11-14T01:53:03.321Z,79.60
2018-11-14T01:55:33.307Z,79.59
2018-11-14T01:58:02.798Z,79.70
2018-11-14T02:00:33.141Z,79.29
2018-11-14T02:03:02.783Z,79.29
2018-11-14T02:05:33.333Z,79.82
2018-11-14T02:08:02.755Z,79.99
2018-11-14T02:10:36.159Z,79.50
2018-11-14T02:13:08.513Z,78.63
2018-11-14T02:15:38.510Z,78.14
2018-11-14T02:18:09.375Z,77.87
2018-11-14T02:20:39.303Z,77.83
2018-11-14T02:23:12.311Z,78.51
2018-11-14T02:25:43.450Z,77.97
2018-11-14T02:28:14.379Z,78.28
2018-11-14T02:30:45.325Z,78.53
2018-11-14T02:33:15.950Z,77.81
2018-11-14T02:35:46.470Z,78.81
2018-11-14T02:38:16.547Z,79.08
2018-11-14T02:40:47.670Z,78.95
2018-11-14T02:43:18.609Z,78.83
2018-11-14T02:45:48.527Z,78.28
2018-11-14T02:48:20.475Z,77.81
2018-11-14T02:51:01.042Z,77.47
2018-11-14T02:53:33.540Z,77.43
2018-11-14T02:56:07.206Z,77.60
2018-11-14T02:58:38.391Z,77.61
2018-11-14T03:01:09.055Z,77.53
2018-11-14T03:03:39.363Z,77.74
2018-11-14T03:06:10.374Z,77.62
2018-11-14T03:08:49.551Z,77.02
2018-11-14T03:11:19.642Z,77.32
2018-11-14T03:13:50.592Z,76.54
2018-11-14T03:16:20.796Z,77.22
2018-11-14T03:18:51.643Z,77.65
2018-11-14T03:21:21.586Z,77.42
2018-11-14T03:23:52.646Z,77.62
2018-11-14T03:26:23.658Z,77.26
2018-11-14T03:28:54.218Z,77.00
2018-11-14T03:31:24.693Z,77.26
2018-11-14T03:33:55.627Z,76.77
2018-11-14T03:36:25.714Z,76.90
2018-11-14T03:38:56.840Z,77.21
2018-11-14T03:41:26.795Z,76.94
2018-11-14T03:43:57.990Z,76.94
2018-11-14T03:46:28.663Z,76.85
2018-11-14T03:48:58.890Z,76.86
2018-11-14T03:51:29.814Z,77.25
2018-11-14T03:54:00.999Z,76.95
2018-11-14T03:56:31.947Z,77.16
2018-11-14T03:59:12.384Z,77.44
2018-11-14T04:01:47.647Z,77.09
2018-11-14T04:04:37.356Z,77.48
2018-11-14T04:07:12.538Z,77.31
2018-11-14T04:09:52.432Z,77.37
2018-11-14T04:12:27.737Z,77.65
2018-11-14T04:15:13.564Z,77.42
2018-11-14T04:17:48.737Z,77.03
2018-11-14T04:20:27.663Z,77.07
2018-11-14T04:23:15.561Z,77.19
2018-11-14T04:25:59.686Z,77.77
2018-11-14T04:28:48.051Z,77.89
2018-11-14T04:31:33.184Z,77.29
2018-11-14T04:34:18.965Z,77.55
2018-11-14T04:37:08.000Z,77.27
2018-11-14T04:39:52.384Z,78.79
2018-11-14T04:42:41.007Z,78.16
2018-11-14T04:45:25.580Z,78.75
2018-11-14T04:48:10.250Z,78.86
2018-11-14T04:50:55.690Z,78.83
2018-11-14T04:53:45.984Z,78.84
2018-11-14T04:56:30.080Z,79.27
2018-11-14T04:59:05.450Z,78.84
2018-11-14T05:01:36.247Z,78.70
2018-11-14T05:04:09.786Z,78.50
2018-11-14T05:06:40.155Z,78.89
2018-11-14T05:09:13.091Z,78.45
2018-11-14T05:11:45.259Z,78.83
2018-11-14T05:14:15.270Z,78.58
2018-11-14T05:16:46.194Z,78.64
2018-11-14T05:19:16.106Z,79.02
2018-11-14T05:21:47.095Z,78.53
2018-11-14T05:24:17.203Z,78.64
2018-11-14T05:26:57.354Z,79.01
2018-11-14T05:29:27.187Z,78.31
2018-11-14T05:32:01.153Z,78.62
2018-11-14T05:34:31.010Z,78.84
2018-11-14T05:37:02.219Z,78.43
2018-11-14T05:39:32.219Z,78.84
2018-11-14T05:42:02.906Z,79.16
2018-11-14T05:44:33.982Z,78.78
2018-11-14T05:47:03.630Z,78.89
2018-11-14T05:49:35.143Z,78.50
2018-11-14T05:52:05.880Z,78.83
2018-11-14T05:54:44.841Z,78.47
2018-11-14T05:57:15.355Z,78.97
2018-11-14T05:59:46.490Z,78.78
2018-11-14T06:02:18.532Z,78.47
2018-11-14T06:04:50.432Z,78.68
2018-11-14T06:07:24.381Z,79.35
2018-11-14T06:09:54.404Z,78.89
2018-11-14T06:12:37.571Z,79.19
2018-11-14T06:15:12.190Z,78.97
2018-11-14T06:17:42.855Z,78.50
2018-11-14T06:20:15.153Z,78.33
2018-11-14T06:22:47.520Z,78.35
2018-11-14T06:25:21.703Z,79.41
2018-11-14T06:27:55.200Z,79.34
2018-11-14T06:30:24.863Z,79.46
2018-11-14T06:32:56.208Z,79.40
2018-11-14T06:35:31.426Z,78.99
2018-11-14T06:38:02.546Z,78.51
2018-11-14T06:40:32.713Z,79.07
2018-11-14T06:43:02.897Z,78.69
2018-11-14T06:45:34.162Z,79.34
2018-11-14T06:48:04.207Z,79.66
2018-11-14T06:50:34.952Z,79.28
2018-11-14T06:53:08.592Z,79.56
2018-11-14T06:55:44.374Z,80.06
2018-11-14T06:58:15.527Z,78.93
2018-11-14T07:00:47.638Z,78.72
2018-11-14T07:03:25.688Z,79.00
2018-11-14T07:05:55.821Z,79.30
2018-11-14T07:08:26.580Z,79.75
2018-11-14T07:10:56.873Z,81.60
2018-11-14T07:13:27.696Z,82.41
2018-11-14T07:15:58.793Z,81.97
2018-11-14T07:18:28.739Z,80.87
2018-11-14T07:20:59.746Z,81.29
2018-11-14T07:23:30.863Z,81.20
2018-11-14T07:26:00.930Z,81.02
2018-11-14T07:28:31.807Z,80.47
2018-11-14T07:31:03.571Z,80.83
2018-11-14T07:33:34.983Z,80.57
2018-11-14T07:36:06.842Z,80.26
2018-11-14T07:38:45.722Z,79.77
2018-11-14T07:41:19.954Z,79.64
2018-11-14T07:43:49.968Z,79.89
2018-11-14T07:46:19.432Z,78.71
2018-11-14T07:48:50.160Z,78.66
2018-11-14T07:51:20.006Z,77.48
2018-11-14T07:53:50.108Z,77.76
2018-11-14T07:59:18.019Z,78.53
2018-11-14T08:01:49.047Z,78.52
2018-11-14T08:04:19.002Z,77.93
2018-11-14T08:06:50.005Z,79.22
2018-11-14T08:09:21.059Z,79.83
2018-11-14T08:11:53.267Z,79.19
2018-11-14T08:14:24.711Z,78.58
2018-11-14T08:16:57.810Z,78.09
2018-11-14T08:25:28.796Z,78.59
2018-11-14T08:27:58.277Z,75.61
2018-11-14T08:30:28.764Z,75.59
2018-11-14T08:32:59.010Z,74.14
2018-11-14T08:35:30.156Z,73.29
2018-11-14T08:38:00.063Z,73.21
2018-11-14T08:40:31.080Z,71.69
2018-11-14T08:43:05.959Z,69.93
2018-11-14T08:45:38.895Z,72.34
2018-11-14T08:48:10.413Z,71.10
2018-11-14T08:50:40.246Z,70.42
2018-11-14T08:53:11.706Z,67.47
2018-11-14T08:55:42.250Z,66.70
2018-11-14T08:58:14.231Z,65.27
2018-11-14T09:00:46.213Z,64.74
2018-11-14T09:03:23.515Z,65.26
2018-11-14T09:05:53.098Z,62.94
2018-11-14T09:08:24.296Z,65.23
2018-11-14T09:10:54.285Z,64.56
2018-11-14T09:13:24.690Z,63.81
2018-11-14T09:15:55.396Z,62.36
2018-11-14T09:18:26.011Z,61.26
2018-11-14T09:20:56.643Z,58.51
2018-11-14T09:23:26.982Z,60.41
2018-11-14T09:25:57.273Z,60.38
2018-11-14T09:28:28.198Z,58.62
2018-11-14T09:30:58.366Z,58.68
2018-11-14T09:33:29.367Z,57.05
2018-11-14T09:36:02.221Z,59.51
2018-11-14T09:38:37.213Z,57.00
2018-11-14T09:41:12.290Z,58.90
2018-11-14T09:43:43.738Z,57.03
2018-11-14T09:46:15.473Z,57.35
2018-11-14T09:48:45.553Z,56.57
2018-11-14T09:51:15.490Z,56.08
2018-11-14T09:53:46.537Z,55.74
2018-11-14T09:56:17.536Z,54.34
2018-11-14T09:58:48.550Z,57.13
2018-11-14T10:01:18.415Z,59.55
2018-11-14T10:03:49.598Z,59.68
2018-11-14T10:06:20.456Z,55.90
2018-11-14T10:08:54.183Z,54.84
2018-11-14T10:11:24.650Z,54.82
2018-11-14T10:13:55.446Z,55.99
2018-11-14T10:16:26.263Z,54.13
2018-11-14T10:18:56.523Z,53.58
2018-11-14T10:21:27.149Z,54.03
2018-11-14T10:23:57.559Z,54.67
2018-11-14T10:26:27.581Z,54.78
2018-11-14T10:29:02.965Z,52.39
2018-11-14T10:31:33.595Z,53.92
2018-11-14T10:34:03.450Z,53.90
2018-11-14T10:36:36.635Z,51.64
2018-11-14T10:39:13.669Z,53.00
2018-11-14T10:41:43.785Z,52.89
2018-11-14T10:44:15.795Z,52.03
2018-11-14T10:46:47.591Z,52.78
2018-11-14T10:49:18.453Z,53.27
2018-11-14T10:51:48.772Z,54.33
2018-11-14T10:54:19.640Z,53.91
2018-11-14T10:59:49.602Z,50.90
2018-11-14T11:02:27.034Z,49.51
2018-11-14T11:05:04.174Z,51.31
2018-11-14T11:07:41.150Z,46.53
2018-11-14T11:10:17.931Z,47.67
2018-11-14T11:12:54.211Z,44.40
2018-11-14T11:15:33.971Z,45.75
2018-11-14T11:18:05.695Z,48.63
2018-11-14T11:20:35.967Z,46.18
2018-11-14T11:23:07.295Z,44.65
2018-11-14T11:25:38.064Z,45.31
2018-11-14T11:28:11.115Z,44.45
2018-11-14T11:30:41.864Z,44.57
2018-11-14T11:33:13.004Z,43.96
2018-11-14T11:35:44.027Z,42.03
2018-11-14T11:38:16.027Z,44.22
2018-11-14T11:41:05.428Z,42.60
2018-11-14T11:43:35.127Z,43.37
2018-11-14T11:46:06.883Z,42.56
2018-11-14T11:48:36.249Z,43.42
2018-11-14T11:51:07.250Z,43.24
2018-11-14T11:53:39.170Z,42.87
2018-11-14T11:56:11.099Z,42.92
2018-11-14T11:58:42.103Z,41.18
2018-11-14T12:01:12.051Z,43.01
2018-11-14T12:03:43.040Z,44.48
2018-11-14T12:06:14.197Z,42.81
2018-11-14T12:08:45.147Z,44.17
2018-11-14T12:11:16.338Z,43.55
2018-11-14T12:13:46.293Z,45.44
2018-11-14T12:16:15.960Z,46.40
2018-11-14T12:18:47.062Z,45.50
2018-11-14T12:21:23.993Z,44.48
2018-11-14T12:23:55.196Z,44.25
2018-11-14T12:26:27.883Z,46.08
2018-11-14T12:28:59.068Z,45.63
2018-11-14T12:31:35.983Z,46.70
2018-11-14T12:34:13.091Z,46.70
2018-11-14T12:36:43.120Z,47.24
2018-11-14T12:39:15.233Z,47.35
2018-11-14T12:41:45.244Z,50.72
2018-11-14T12:44:21.086Z,52.87
2018-11-14T12:46:54.070Z,53.31
2018-11-14T12:49:25.333Z,54.03
2018-11-14T12:51:56.514Z,50.72
2018-11-14T12:54:25.980Z,52.45
2018-11-14T12:56:59.126Z,52.46
2018-11-14T12:59:29.325Z,54.23
2018-11-14T13:02:00.247Z,52.27
2018-11-14T13:04:30.627Z,54.46
2018-11-14T13:07:02.888Z,54.09
2018-11-14T13:09:34.411Z,55.93
2018-11-14T13:12:03.915Z,56.01
2018-11-14T13:14:33.367Z,56.99
2018-11-14T13:17:03.650Z,57.24
2018-11-14T13:19:34.392Z,57.70
2018-11-14T13:22:03.926Z,57.03
2018-11-14T13:24:35.648Z,57.43
2018-11-14T13:27:06.725Z,55.26
2018-11-14T13:29:36.511Z,57.11
2018-11-14T13:32:06.582Z,56.61
2018-11-14T13:34:38.683Z,58.63
2018-11-14T13:37:09.641Z,58.53
2018-11-14T13:39:41.699Z,58.27
2018-11-14T13:42:13.642Z,58.32
2018-11-14T13:44:43.518Z,58.97
2018-11-14T13:47:20.377Z,59.10
2018-11-14T13:49:50.862Z,59.20
2018-11-14T13:52:21.563Z,59.16
2018-11-14T13:54:52.775Z,59.03
2018-11-14T13:57:22.617Z,58.98
2018-11-14T13:59:52.114Z,59.17
2018-11-14T14:02:22.575Z,58.95
2018-11-14T14:04:53.514Z,58.96
2018-11-14T14:07:24.776Z,59.15
2018-11-14T14:09:55.569Z,58.73
2018-11-14T14:12:25.665Z,58.68
2018-11-14T14:14:55.808Z,58.54
2018-11-14T14:17:25.654Z,58.44
2018-11-14T14:19:56.791Z,59.15
2018-11-14T14:22:30.575Z,57.53
2018-11-14T14:25:01.745Z,58.97
2018-11-14T14:27:33.607Z,58.46
2018-11-14T14:30:03.764Z,59.41
2018-11-14T14:32:36.227Z,59.43
2018-11-14T14:35:07.544Z,59.30
2018-11-14T14:37:42.485Z,60.21
2018-11-14T14:40:19.912Z,60.68
2018-11-14T14:42:50.061Z,61.07
2018-11-14T14:45:22.428Z,61.36
2018-11-14T14:47:54.091Z,61.62
2018-11-14T14:50:24.942Z,61.75
2018-11-14T14:52:54.835Z,62.24
2018-11-14T14:55:26.266Z,62.53
2018-11-14T14:57:56.018Z,62.94
2018-11-14T15:00:28.184Z,63.10
2018-11-14T15:02:58.062Z,62.96
2018-11-14T15:05:29.941Z,63.06
2018-11-14T15:08:05.094Z,63.39
2018-11-14T15:10:38.851Z,63.39
2018-11-14T15:13:08.677Z,63.84
2018-11-14T15:15:41.071Z,63.70
2018-11-14T15:18:15.735Z,63.81
2018-11-14T15:20:45.126Z,63.40
2018-11-14T15:23:17.199Z,63.71
2018-11-14T15:25:47.946Z,63.76
2018-11-14T15:28:20.123Z,63.87
2018-11-14T15:30:51.571Z,64.28
2018-11-14T15:33:22.024Z,64.47
2018-11-14T15:35:53.234Z,64.35
2018-11-14T15:38:25.214Z,64.23
2018-11-14T15:40:55.943Z,63.86
2018-11-14T15:43:26.383Z,63.79
2018-11-14T15:45:56.186Z,63.58
2018-11-14T15:51:27.304Z,63.82
2018-11-14T15:53:58.074Z,63.81
2018-11-14T15:56:29.138Z,64.04
2018-11-14T15:58:59.435Z,64.34
2018-11-14T16:01:30.370Z,64.08
2018-11-14T16:04:00.850Z,65.18
2018-11-14T16:06:31.220Z,65.58
2018-11-14T16:09:02.206Z,65.28
2018-11-14T16:11:32.474Z,65.37
2018-11-14T16:14:02.914Z,65.56
2018-11-14T16:16:32.283Z,66.41
2018-11-14T16:19:03.943Z,67.47
2018-11-14T16:21:34.478Z,66.87
2018-11-14T16:24:03.910Z,67.40
2018-11-14T16:26:35.774Z,68.85
2018-11-14T16:32:14.061Z,68.36
2018-11-14T16:34:45.377Z,69.41
2018-11-14T16:37:16.610Z,68.03
2018-11-14T16:39:48.515Z,67.57
2018-11-14T16:42:20.467Z,68.80
2018-11-14T16:44:51.407Z,68.39
2018-11-14T16:47:21.430Z,68.46
2018-11-14T16:49:52.645Z,68.10
2018-11-14T16:52:22.377Z,68.85
2018-11-14T16:54:56.207Z,68.18
2018-11-14T16:57:28.312Z,69.00
2018-11-14T16:59:59.386Z,68.87
2018-11-14T17:02:30.502Z,66.91
2018-11-14T17:05:01.727Z,68.08
2018-11-14T17:07:35.346Z,68.80
2018-11-14T17:10:09.569Z,69.50
2018-11-14T17:12:42.419Z,69.31
2018-11-14T17:15:22.559Z,69.06
2018-11-14T17:17:54.958Z,67.83
2018-11-14T17:20:25.538Z,68.16
2018-11-14T17:22:55.891Z,68.82
2018-11-14T17:25:26.554Z,68.15
2018-11-14T17:28:00.660Z,68.11
2018-11-14T17:30:31.814Z,68.86
2018-11-14T17:33:02.816Z,68.71
2018-11-14T17:35:34.534Z,68.47
2018-11-14T17:38:04.179Z,68.19
2018-11-14T17:40:38.718Z,68.83
2018-11-14T17:43:08.847Z,67.89
2018-11-14T17:45:40.802Z,68.12
2018-11-14T17:48:12.764Z,67.96
2018-11-14T17:50:43.778Z,67.92
2018-11-14T17:53:14.715Z,67.70
2018-11-14T17:55:44.839Z,68.09
2018-11-14T17:58:15.828Z,68.45
2018-11-14T18:00:46.794Z,68.70
2018-11-14T18:03:16.742Z,68.82
2018-11-14T18:05:50.570Z,69.06
2018-11-14T18:08:24.487Z,68.46
2018-11-14T18:10:57.643Z,67.17
2018-11-14T18:13:33.716Z,68.08
2018-11-14T18:16:07.714Z,68.39
2018-11-14T18:18:44.079Z,68.05
2018-11-14T18:21:14.759Z,66.97
2018-11-14T18:23:45.221Z,68.41
2018-11-14T18:26:18.551Z,69.30
2018-11-14T18:28:52.693Z,68.47
2018-11-14T18:31:22.855Z,69.13
2018-11-14T18:33:52.936Z,69.28
2018-11-14T18:36:24.075Z,69.24
2018-11-14T18:38:53.912Z,69.27
2018-11-14T18:41:29.011Z,67.83
2018-11-14T18:44:01.868Z,68.33
2018-11-14T18:46:32.110Z,68.95
2018-11-14T18:49:04.226Z,68.32
2018-11-14T18:51:34.907Z,69.01
2018-11-14T18:54:04.709Z,69.08
2018-11-14T18:56:39.865Z,68.55
2018-11-14T18:59:13.348Z,68.00
2018-11-14T19:01:45.006Z,68.73
2018-11-14T19:04:17.222Z,68.92
2018-11-14T19:06:48.532Z,70.25
2018-11-14T19:09:18.257Z,70.25
2018-11-14T19:11:48.957Z,70.40
2018-11-14T19:14:23.210Z,70.15
2018-11-14T19:16:54.599Z,69.72
2018-11-14T19:19:26.533Z,69.45
2018-11-14T19:21:56.907Z,69.07
2018-11-14T19:24:27.522Z,68.98
2018-11-14T19:26:58.110Z,68.69
2018-11-14T19:29:33.688Z,68.06
2018-11-14T19:32:04.350Z,66.75
2018-11-14T19:34:36.211Z,68.51
2018-11-14T19:37:07.414Z,69.65
2018-11-14T19:39:39.431Z,69.71
2018-11-14T19:42:10.168Z,69.72
2018-11-14T19:44:41.170Z,69.86
2018-11-14T19:47:14.110Z,69.16
2018-11-14T19:49:45.463Z,69.83
2018-11-14T19:52:16.307Z,69.38
2018-11-14T19:54:47.891Z,69.55
2018-11-14T19:57:18.753Z,69.73
2018-11-14T19:59:49.027Z,69.83
2018-11-14T20:02:19.331Z,69.78
2018-11-14T20:04:50.242Z,70.44
2018-11-14T20:07:29.207Z,70.34
2018-11-14T20:10:00.266Z,69.99
2018-11-14T20:12:30.406Z,70.01
2018-11-14T20:15:01.572Z,70.12
2018-11-14T20:17:31.601Z,70.17
2018-11-14T20:20:02.615Z,70.21
2018-11-14T20:22:33.459Z,70.43
2018-11-14T20:25:03.360Z,69.93
2018-11-14T20:27:33.572Z,69.85
2018-11-14T20:30:04.604Z,70.44
2018-11-14T20:32:34.463Z,70.03
2018-11-14T20:35:04.414Z,70.37
2018-11-14T20:37:35.582Z,70.38
2018-11-14T20:40:05.419Z,70.21
2018-11-14T20:42:36.738Z,70.47
2018-11-14T20:45:10.038Z,69.11
2018-11-14T20:47:45.457Z,70.45
2018-11-14T20:50:16.832Z,70.27
2018-11-14T20:52:47.199Z,70.52
2018-11-14T20:55:18.862Z,70.91
2018-11-14T20:57:50.564Z,71.50
2018-11-14T21:00:27.034Z,71.65
2018-11-14T21:02:56.922Z,71.36
2018-11-14T21:05:28.365Z,71.60
2018-11-14T21:07:59.823Z,71.64
2018-11-14T21:10:35.654Z,71.91
2018-11-14T21:13:05.908Z,71.55
2018-11-14T21:15:36.703Z,71.20
2018-11-14T21:18:06.442Z,70.74
2018-11-14T21:23:36.243Z,71.28
2018-11-14T21:29:12.046Z,70.92
2018-11-14T21:31:41.622Z,70.48
2018-11-14T21:34:13.539Z,70.94
2018-11-14T21:36:45.726Z,71.83
2018-11-14T21:39:16.746Z,71.48
2018-11-14T21:41:46.614Z,71.89
2018-11-14T21:44:16.905Z,71.86
2018-11-14T21:46:47.963Z,72.12
2018-11-14T21:49:23.985Z,71.77
2018-11-14T21:51:56.676Z,72.24
2018-11-14T21:54:28.871Z,71.75
2018-11-14T21:56:59.726Z,72.00
2018-11-14T21:59:30.857Z,72.38
2018-11-14T22:02:00.876Z,72.32
2018-11-14T22:04:30.795Z,72.24
2018-11-14T22:07:01.820Z,72.03
2018-11-14T22:09:31.967Z,72.24
2018-11-14T22:12:07.506Z,71.87
2018-11-14T22:14:36.856Z,71.49
2018-11-14T22:17:07.882Z,71.71
2018-11-14T22:19:37.926Z,72.05
2018-11-14T22:22:09.047Z,72.01
2018-11-14T22:24:38.853Z,71.39
2018-11-14T22:27:09.118Z,72.55
2018-11-14T22:29:40.895Z,71.87
2018-11-14T22:32:19.366Z,72.51
2018-11-14T22:34:54.914Z,72.13
2018-11-14T22:37:30.159Z,72.71
2018-11-14T22:40:00.126Z,72.51
2018-11-14T22:42:30.514Z,72.43
2018-11-14T22:45:01.043Z,71.36
2018-11-14T22:47:31.983Z,71.73
2018-11-14T22:50:04.615Z,72.26
2018-11-14T22:52:35.002Z,72.19
2018-11-14T22:55:05.118Z,73.25
2018-11-14T22:57:40.754Z,73.04
2018-11-14T23:00:21.679Z,73.68
2018-11-14T23:02:55.200Z,73.67
2018-11-14T23:05:30.554Z,73.96
2018-11-14T23:08:06.040Z,72.90
2018-11-14T23:10:36.205Z,72.99
2018-11-14T23:13:08.291Z,73.17
2018-11-14T23:15:40.264Z,73.72
2018-11-14T23:18:09.608Z,73.59
2018-11-14T23:20:44.894Z,73.64
2018-11-14T23:23:16.807Z,72.53
2018-11-14T23:25:47.306Z,72.83
2018-11-14T23:28:18.327Z,73.11
2018-11-14T23:30:50.090Z,73.74
2018-11-14T23:33:25.560Z,73.87
2018-11-14T23:35:58.266Z,74.05
2018-11-14T23:38:28.370Z,74.14
2018-11-14T23:40:58.230Z,74.19
2018-11-14T23:43:29.287Z,74.15
2018-11-14T23:46:04.538Z,73.53
2018-11-14T23:48:36.308Z,74.01
2018-11-14T23:51:09.686Z,73.97
2018-11-14T23:53:39.314Z,74.25
2018-11-14T23:56:14.674Z,74.04
2018-11-14T23:58:44.260Z,74.08
